createdAt,value
2018-04-30T00:00:16.847Z,18.00
2018-04-30T00:02:44.978Z,18.10
2018-04-30T00:05:12.507Z,18.10
2018-04-30T00:07:40.933Z,18.00
2018-04-30T00:10:09.224Z,18.10
2018-04-30T00:12:37.500Z,18.00
2018-04-30T00:15:14.002Z,18.00
2018-04-30T00:17:41.523Z,18.00
2018-04-30T00:20:10.081Z,18.00
2018-04-30T00:22:37.584Z,18.00
2018-04-30T00:25:05.140Z,18.00
2018-04-30T00:27:32.659Z,18.10
2018-04-30T00:30:00.633Z,18.10
2018-04-30T00:32:28.164Z,18.10
2018-04-30T00:34:56.443Z,18.10
2018-04-30T00:37:23.968Z,18.10
2018-04-30T00:39:51.517Z,18.10
2018-04-30T00:42:23.906Z,18.10
2018-04-30T00:44:51.719Z,18.10
2018-04-30T00:47:19.266Z,18.00
2018-04-30T00:49:46.788Z,18.00
2018-04-30T00:52:14.307Z,18.00
2018-04-30T00:54:57.662Z,18.00
2018-04-30T00:57:25.966Z,18.10
2018-04-30T00:59:53.509Z,18.10
2018-04-30T01:02:21.060Z,18.00
2018-04-30T01:04:49.371Z,18.10
2018-04-30T01:07:16.928Z,18.10
2018-04-30T01:09:48.568Z,18.10
2018-04-30T01:12:19.544Z,18.10
2018-04-30T01:14:47.061Z,18.00
2018-04-30T01:17:18.636Z,18.00
2018-04-30T01:19:46.156Z,18.00
2018-04-30T01:22:14.589Z,18.00
2018-04-30T01:24:42.771Z,17.90
2018-04-30T01:27:10.370Z,17.90
2018-04-30T01:29:39.264Z,17.80
2018-04-30T01:32:07.572Z,17.80
2018-04-30T01:34:35.082Z,17.80
2018-04-30T01:37:02.632Z,17.90
2018-04-30T01:39:30.161Z,17.90
2018-04-30T01:41:57.705Z,18.00
2018-04-30T01:44:25.239Z,18.00
2018-04-30T01:46:53.520Z,18.00
2018-04-30T01:49:21.830Z,17.90
2018-04-30T01:51:49.363Z,17.90
2018-04-30T01:54:18.247Z,17.70
2018-04-30T01:56:46.528Z,17.70
2018-04-30T01:59:14.872Z,17.70
2018-04-30T02:01:42.415Z,17.60
2018-04-30T02:04:09.927Z,17.70
2018-04-30T02:06:38.212Z,17.60
2018-04-30T02:09:09.270Z,17.50
2018-04-30T02:11:36.801Z,17.60
2018-04-30T02:14:04.333Z,17.70
2018-04-30T02:16:31.858Z,17.70
2018-04-30T02:18:59.380Z,17.70
2018-04-30T02:21:27.668Z,17.60
2018-04-30T02:23:55.186Z,17.60
2018-04-30T02:26:22.720Z,17.50
2018-04-30T02:28:50.228Z,17.40
2018-04-30T02:31:18.502Z,17.40
2018-04-30T02:33:46.807Z,17.50
2018-04-30T02:36:14.329Z,17.40
2018-04-30T02:38:42.516Z,17.50
2018-04-30T02:41:10.813Z,17.40
2018-04-30T02:43:38.394Z,17.40
2018-04-30T02:46:05.966Z,17.40
2018-04-30T02:48:33.492Z,17.40
2018-04-30T02:51:01.024Z,17.20
2018-04-30T02:53:29.165Z,17.10
2018-04-30T02:55:57.181Z,17.10
2018-04-30T02:58:25.467Z,17.00
2018-04-30T03:00:54.442Z,17.00
2018-04-30T03:03:21.959Z,17.00
2018-04-30T03:05:49.482Z,17.10
2018-04-30T03:08:17.755Z,17.20
2018-04-30T03:10:46.145Z,17.10
2018-04-30T03:13:14.235Z,17.10
2018-04-30T03:15:41.779Z,17.10
2018-04-30T03:18:09.294Z,17.10
2018-04-30T03:20:40.779Z,17.10
2018-04-30T03:23:08.859Z,17.00
2018-04-30T03:25:36.533Z,16.90
2018-04-30T03:28:04.894Z,16.90
2018-04-30T03:30:32.412Z,17.00
2018-04-30T03:32:59.947Z,16.90
2018-04-30T03:35:27.715Z,16.90
2018-04-30T03:37:55.243Z,17.00
2018-04-30T03:40:23.484Z,16.90
2018-04-30T03:42:54.927Z,16.90
2018-04-30T03:45:22.442Z,16.90
2018-04-30T03:47:49.989Z,17.00
2018-04-30T03:50:17.517Z,17.00
2018-04-30T03:52:45.076Z,17.00
2018-04-30T03:55:12.632Z,17.00
2018-04-30T03:57:40.158Z,17.00
2018-04-30T04:00:07.785Z,17.10
2018-04-30T04:02:47.250Z,17.10
2018-04-30T04:05:27.795Z,17.00
2018-04-30T04:07:55.312Z,17.00
2018-04-30T04:10:22.930Z,16.90
2018-04-30T04:12:50.543Z,16.90
2018-04-30T04:15:17.996Z,17.00
2018-04-30T04:17:45.507Z,17.10
2018-04-30T04:20:13.040Z,17.10
2018-04-30T04:22:41.332Z,17.00
2018-04-30T04:25:08.866Z,16.90
2018-04-30T04:27:38.493Z,16.90
2018-04-30T04:30:06.079Z,16.80
2018-04-30T04:32:34.372Z,16.90
2018-04-30T04:35:06.107Z,16.90
2018-04-30T04:37:33.645Z,16.90
2018-04-30T04:40:01.655Z,16.90
2018-04-30T04:42:29.988Z,17.00
2018-04-30T04:44:58.276Z,16.90
2018-04-30T04:47:25.862Z,16.90
2018-04-30T04:49:54.104Z,17.10
2018-04-30T04:52:22.406Z,17.00
2018-04-30T04:54:49.977Z,17.00
2018-04-30T04:57:17.531Z,17.10
2018-04-30T04:59:45.927Z,17.10
2018-04-30T05:02:14.408Z,17.00
2018-04-30T05:04:42.489Z,17.10
2018-04-30T05:07:13.891Z,17.10
2018-04-30T05:09:42.242Z,17.10
2018-04-30T05:12:09.912Z,17.10
2018-04-30T05:14:38.209Z,17.00
2018-04-30T05:17:05.747Z,17.00
2018-04-30T05:19:33.286Z,17.00
2018-04-30T05:22:00.806Z,16.90
2018-04-30T05:24:28.349Z,16.80
2018-04-30T05:27:00.447Z,16.80
2018-04-30T05:29:28.668Z,16.70
2018-04-30T05:31:57.199Z,16.90
2018-04-30T05:34:24.752Z,16.80
2018-04-30T05:36:53.376Z,17.00
2018-04-30T05:39:20.918Z,17.00
2018-04-30T05:41:52.373Z,17.00
2018-04-30T05:44:19.906Z,17.00
2018-04-30T05:46:48.693Z,17.00
2018-04-30T05:49:27.969Z,17.00
2018-04-30T06:01:44.372Z,17.10
2018-04-30T06:04:11.926Z,17.10
2018-04-30T06:06:40.322Z,17.20
2018-04-30T06:09:08.647Z,17.10
2018-04-30T06:11:36.211Z,17.40
2018-04-30T06:14:04.092Z,17.60
2018-04-30T06:16:35.894Z,17.60
2018-04-30T06:19:04.090Z,17.70
2018-04-30T06:21:32.172Z,17.90
2018-04-30T06:24:00.342Z,17.90
2018-04-30T06:26:27.943Z,18.00
2018-04-30T06:28:55.512Z,18.20
2018-04-30T06:31:23.903Z,18.40
2018-04-30T06:33:52.205Z,18.50
2018-04-30T06:49:20.369Z,18.50
2018-04-30T06:51:47.893Z,18.70
2018-04-30T06:54:17.075Z,19.50
2018-04-30T06:56:44.690Z,19.50
2018-04-30T06:59:12.225Z,20.00
2018-04-30T07:01:39.750Z,20.30
2018-04-30T07:04:07.341Z,20.50
2018-04-30T07:06:35.626Z,20.20
2018-04-30T07:09:04.176Z,20.10
2018-04-30T07:11:32.499Z,20.00
2018-04-30T07:14:00.021Z,19.90
2018-04-30T07:16:32.614Z,19.80
2018-04-30T07:19:06.777Z,19.70
2018-04-30T07:21:35.043Z,19.60
2018-04-30T07:24:06.603Z,19.50
2018-04-30T07:26:35.325Z,19.50
2018-04-30T07:29:02.847Z,19.40
2018-04-30T07:31:30.408Z,19.30
2018-04-30T07:33:57.956Z,19.20
2018-04-30T07:36:25.475Z,19.30
2018-04-30T07:38:57.821Z,19.20
2018-04-30T07:41:25.365Z,19.20
2018-04-30T07:43:53.580Z,19.20
2018-04-30T07:46:22.440Z,19.00
2018-04-30T07:48:50.009Z,19.00
2018-04-30T07:51:17.523Z,19.10
2018-04-30T07:53:45.487Z,18.90
2018-04-30T07:56:13.412Z,18.80
2018-04-30T07:58:41.030Z,18.80
2018-04-30T08:01:08.635Z,18.70
2018-04-30T08:03:36.192Z,18.70
2018-04-30T08:06:03.719Z,18.60
2018-04-30T08:08:35.266Z,18.60
2018-04-30T08:11:04.830Z,18.40
2018-04-30T08:13:37.042Z,18.30
2018-04-30T08:16:04.595Z,18.30
2018-04-30T08:18:32.811Z,18.20
2018-04-30T08:21:00.329Z,18.10
2018-04-30T08:23:27.855Z,18.00
2018-04-30T08:25:56.927Z,17.70
2018-04-30T08:28:29.202Z,17.70
2018-04-30T08:30:56.723Z,17.60
2018-04-30T08:33:24.247Z,17.70
2018-04-30T08:35:52.536Z,17.90
2018-04-30T08:38:24.331Z,17.90
2018-04-30T08:53:56.675Z,17.90
2018-04-30T08:56:24.250Z,17.90
2018-04-30T08:58:52.637Z,18.00
2018-04-30T09:01:20.301Z,18.20
2018-04-30T09:03:47.907Z,18.30
2018-04-30T09:06:20.230Z,18.50
2018-04-30T09:08:47.771Z,18.50
2018-04-30T09:11:15.299Z,18.50
2018-04-30T09:13:43.080Z,18.30
2018-04-30T09:16:11.757Z,18.10
2018-04-30T09:18:40.202Z,18.30
2018-04-30T09:21:07.764Z,18.20
2018-04-30T09:23:40.380Z,18.30
2018-04-30T09:26:08.520Z,18.40
2018-04-30T09:28:36.047Z,18.40
2018-04-30T09:31:07.841Z,18.30
2018-04-30T09:33:35.494Z,18.20
2018-04-30T09:36:03.095Z,18.10
2018-04-30T09:38:30.663Z,18.20
2018-04-30T09:40:58.194Z,18.40
2018-04-30T09:43:29.958Z,18.30
2018-04-30T09:46:02.451Z,18.30
2018-04-30T09:48:30.804Z,18.30
2018-04-30T09:50:59.483Z,18.40
2018-04-30T09:53:27.306Z,18.40
2018-04-30T09:55:55.680Z,18.20
2018-04-30T09:58:27.055Z,18.20
2018-04-30T10:00:54.610Z,18.10
2018-04-30T10:03:25.638Z,17.90
2018-04-30T10:18:53.218Z,17.70
2018-04-30T10:21:24.885Z,16.80
2018-04-30T10:23:53.596Z,16.90
2018-04-30T10:26:21.075Z,16.90
2018-04-30T10:28:49.421Z,17.00
2018-04-30T10:31:17.737Z,17.00
2018-04-30T10:33:45.288Z,17.00
2018-04-30T10:49:12.882Z,16.90
2018-04-30T10:51:40.438Z,16.50
2018-04-30T10:54:08.855Z,16.70
2018-04-30T10:56:41.504Z,16.90
2018-04-30T10:59:13.447Z,16.80
2018-04-30T11:01:40.991Z,16.80
2018-04-30T11:04:08.997Z,16.60
2018-04-30T11:06:44.486Z,16.50
2018-04-30T11:09:12.015Z,16.40
2018-04-30T11:11:39.838Z,16.40
2018-04-30T11:14:07.362Z,16.40
2018-04-30T11:16:36.249Z,16.40
2018-04-30T11:19:04.535Z,16.50
2018-04-30T11:21:33.673Z,16.50
2018-04-30T11:24:01.223Z,16.40
2018-04-30T11:26:29.190Z,16.60
2018-04-30T11:28:56.753Z,16.70
2018-04-30T11:31:24.262Z,16.40
2018-04-30T11:33:53.524Z,16.50
2018-04-30T11:36:21.884Z,16.70
2018-04-30T11:38:49.973Z,16.70
2018-04-30T11:41:18.319Z,16.80
2018-04-30T11:43:50.095Z,16.80
2018-04-30T11:46:18.084Z,16.80
2018-04-30T12:01:45.940Z,16.60
2018-04-30T12:04:13.498Z,16.60
2018-04-30T12:06:41.716Z,16.60
2018-04-30T12:09:10.425Z,17.10
2018-04-30T12:11:42.211Z,17.10
2018-04-30T12:14:10.297Z,17.20
2018-04-30T12:16:41.924Z,17.10
2018-04-30T12:19:09.552Z,17.00
2018-04-30T12:21:38.807Z,17.00
2018-04-30T12:24:06.807Z,17.00
2018-04-30T12:26:35.989Z,16.90
2018-04-30T12:29:04.117Z,16.90
2018-04-30T12:31:32.348Z,17.00
2018-04-30T12:34:00.600Z,17.50
2018-04-30T12:36:28.120Z,18.40
2018-04-30T12:38:55.783Z,18.80
2018-04-30T12:41:27.452Z,18.60
2018-04-30T12:43:59.344Z,18.10
2018-04-30T12:46:27.248Z,17.60
2018-04-30T12:48:55.791Z,17.20
2018-04-30T12:51:24.484Z,17.20
2018-04-30T12:53:52.018Z,17.20
2018-04-30T12:56:19.584Z,17.10
2018-04-30T12:58:51.276Z,16.90
2018-04-30T13:01:18.814Z,16.90
2018-04-30T13:03:46.345Z,17.00
2018-04-30T13:06:13.950Z,17.20
2018-04-30T13:08:41.471Z,17.10
2018-04-30T13:11:09.027Z,17.20
2018-04-30T13:13:37.058Z,17.10
2018-04-30T13:16:05.369Z,17.30
2018-04-30T13:18:33.880Z,17.30
2018-04-30T13:21:01.409Z,17.40
2018-04-30T13:23:28.948Z,17.60
2018-04-30T13:25:57.268Z,18.20
2018-04-30T13:28:25.574Z,18.40
2018-04-30T13:30:53.096Z,18.40
2018-04-30T13:33:25.283Z,19.10
2018-04-30T13:36:00.563Z,19.70
2018-04-30T13:38:29.103Z,20.10
2018-04-30T13:40:56.641Z,19.70
2018-04-30T13:43:24.460Z,19.20
2018-04-30T13:45:51.976Z,18.80
2018-04-30T13:48:23.814Z,19.00
2018-04-30T13:50:52.922Z,19.50
2018-04-30T13:53:20.436Z,19.50
2018-04-30T13:55:48.416Z,19.40
2018-04-30T13:58:15.943Z,19.20
2018-04-30T14:00:43.486Z,20.00
2018-04-30T14:03:11.324Z,20.00
2018-04-30T14:05:39.809Z,18.90
2018-04-30T14:08:08.086Z,18.70
2018-04-30T14:10:36.460Z,18.50
2018-04-30T14:13:04.994Z,18.30
2018-04-30T14:15:33.358Z,18.20
2018-04-30T14:18:00.899Z,18.10
2018-04-30T14:20:29.261Z,17.90
2018-04-30T14:22:57.578Z,17.70
2018-04-30T14:25:25.093Z,17.70
2018-04-30T14:27:53.447Z,17.80
2018-04-30T14:30:21.908Z,17.70
2018-04-30T14:32:49.453Z,17.80
2018-04-30T14:35:20.981Z,18.00
2018-04-30T14:37:52.584Z,18.20
2018-04-30T14:40:21.510Z,18.30
2018-04-30T14:42:50.471Z,18.40
2018-04-30T14:45:26.742Z,18.40
2018-04-30T14:47:54.257Z,18.70
2018-04-30T14:50:22.051Z,19.50
2018-04-30T14:52:53.241Z,19.70
2018-04-30T14:55:24.641Z,19.00
2018-04-30T14:57:52.965Z,19.70
2018-04-30T15:00:21.281Z,19.90
2018-04-30T15:02:49.572Z,20.10
2018-04-30T15:05:18.061Z,20.10
2018-04-30T15:07:45.577Z,20.60
2018-04-30T15:10:13.797Z,20.90
2018-04-30T15:12:42.689Z,20.70
2018-04-30T15:15:16.192Z,20.30
2018-04-30T15:17:43.728Z,20.30
2018-04-30T15:20:15.087Z,20.40
2018-04-30T15:22:43.037Z,20.30
2018-04-30T15:25:10.596Z,20.60
2018-04-30T15:27:38.867Z,20.70
2018-04-30T15:30:06.381Z,20.90
2018-04-30T15:32:34.269Z,21.30
2018-04-30T15:48:01.880Z,21.20
2018-04-30T15:50:29.417Z,18.50
2018-04-30T15:52:57.511Z,18.20
2018-04-30T15:55:26.477Z,18.10
2018-04-30T15:57:54.948Z,18.20
2018-04-30T16:00:22.509Z,18.30
2018-04-30T16:02:50.393Z,18.40
2018-04-30T16:05:19.262Z,18.50
2018-04-30T16:07:46.771Z,18.50
2018-04-30T16:10:14.325Z,18.40
2018-04-30T16:12:42.625Z,18.30
2018-04-30T16:15:10.153Z,18.30
2018-04-30T16:17:37.802Z,18.30
2018-04-30T16:20:05.316Z,18.40
2018-04-30T16:22:33.661Z,18.30
2018-04-30T16:25:01.232Z,18.30
2018-04-30T16:27:28.924Z,18.20
2018-04-30T16:29:57.225Z,17.90
2018-04-30T16:32:24.756Z,17.90
2018-04-30T16:34:53.041Z,17.90
2018-04-30T16:37:21.980Z,18.00
2018-04-30T16:39:49.504Z,17.90
2018-04-30T16:42:17.027Z,18.10
2018-04-30T16:44:44.573Z,18.00
2018-04-30T16:47:12.151Z,17.90
2018-04-30T16:49:40.143Z,18.00
2018-04-30T16:52:08.472Z,18.10
2018-04-30T16:54:36.009Z,18.10
2018-04-30T16:57:04.075Z,18.00
2018-04-30T16:59:31.604Z,17.80
2018-04-30T17:01:59.919Z,17.60
2018-04-30T17:04:27.486Z,17.60
2018-04-30T17:06:55.009Z,17.60
2018-04-30T17:09:24.127Z,17.50
2018-04-30T17:11:57.169Z,17.50
2018-04-30T17:14:24.739Z,17.50
2018-04-30T17:16:52.880Z,17.60
2018-04-30T17:19:20.399Z,17.50
2018-04-30T17:21:47.955Z,17.40
2018-04-30T17:24:16.271Z,17.60
2018-04-30T17:26:44.626Z,17.60
2018-04-30T17:29:12.160Z,17.50
2018-04-30T17:31:40.578Z,17.50
2018-04-30T17:34:08.102Z,17.50
2018-04-30T17:36:36.830Z,17.40
2018-04-30T17:39:04.334Z,17.40
2018-04-30T17:41:31.865Z,17.40
2018-04-30T17:43:59.405Z,17.20
2018-04-30T17:46:27.360Z,17.10
2018-04-30T17:48:55.026Z,17.10
2018-04-30T17:51:22.612Z,17.00
2018-04-30T17:53:55.275Z,17.00
2018-04-30T18:09:22.845Z,17.00
2018-04-30T18:11:50.383Z,16.40
2018-04-30T18:14:17.943Z,16.50
2018-04-30T18:16:45.488Z,16.60
2018-04-30T18:19:13.184Z,16.80
2018-04-30T18:21:41.914Z,16.90
2018-04-30T18:24:10.208Z,16.70
2018-04-30T18:26:37.983Z,16.70
2018-04-30T18:29:06.377Z,16.60
2018-04-30T18:31:34.378Z,16.50
2018-04-30T18:34:03.566Z,16.30
2018-04-30T18:36:31.176Z,16.30
2018-04-30T18:38:59.581Z,16.40
2018-04-30T18:41:27.113Z,16.30
2018-04-30T18:43:55.727Z,16.20
2018-04-30T18:46:27.369Z,16.20
2018-04-30T18:48:55.351Z,16.00
2018-04-30T18:51:24.046Z,16.10
2018-04-30T18:53:51.605Z,16.00
2018-04-30T18:56:19.145Z,16.00
2018-04-30T18:58:46.675Z,16.00
2018-04-30T19:01:17.911Z,16.00
2018-04-30T19:03:45.443Z,15.90
2018-04-30T19:06:12.992Z,16.00
2018-04-30T19:08:41.608Z,16.00
2018-04-30T19:11:09.154Z,16.10
2018-04-30T19:13:37.345Z,16.00
2018-04-30T19:16:04.911Z,16.00
2018-04-30T19:18:33.295Z,16.00
2018-04-30T19:21:00.813Z,16.00
2018-04-30T19:23:28.583Z,15.90
2018-04-30T19:25:56.123Z,15.60
2018-04-30T19:28:23.669Z,15.50
2018-04-30T19:30:55.120Z,15.40
2018-04-30T19:33:22.646Z,15.30
2018-04-30T19:35:50.800Z,15.30
2018-04-30T19:38:18.772Z,15.30
2018-04-30T19:40:46.311Z,15.30
2018-04-30T19:43:13.836Z,15.30
2018-04-30T19:45:47.408Z,15.00
2018-04-30T19:48:14.938Z,15.00
2018-04-30T19:50:42.477Z,15.10
2018-04-30T19:53:11.691Z,15.10
2018-04-30T19:55:39.226Z,15.10
2018-04-30T19:58:06.789Z,15.00
2018-04-30T20:00:34.323Z,14.80
2018-04-30T20:03:03.241Z,14.60
2018-04-30T20:05:31.024Z,14.60
2018-04-30T20:08:03.184Z,14.50
2018-04-30T20:10:30.758Z,14.40
2018-04-30T20:12:58.295Z,14.20
2018-04-30T20:15:25.836Z,14.30
2018-04-30T20:17:54.120Z,14.20
2018-04-30T20:20:22.485Z,14.20
2018-04-30T20:22:49.978Z,14.20
2018-04-30T20:25:17.531Z,14.20
2018-04-30T20:27:45.056Z,14.10
2018-04-30T20:30:13.630Z,14.10
2018-04-30T20:32:41.783Z,14.10
2018-04-30T20:35:09.429Z,14.10
2018-04-30T20:37:40.949Z,14.10
2018-04-30T20:40:12.268Z,14.00
2018-04-30T20:42:44.930Z,14.00
2018-04-30T20:45:12.471Z,14.00
2018-04-30T20:47:41.180Z,14.00
2018-04-30T20:50:08.757Z,14.10
2018-04-30T20:52:37.078Z,14.20
2018-04-30T20:55:05.419Z,14.10
2018-04-30T20:57:33.764Z,14.10
2018-04-30T21:00:01.295Z,14.10
2018-04-30T21:02:28.835Z,14.00
2018-04-30T21:04:57.150Z,14.00
2018-04-30T21:07:25.119Z,14.00
2018-04-30T21:09:53.448Z,13.90
2018-04-30T21:12:25.592Z,13.80
2018-04-30T21:14:53.141Z,13.80
2018-04-30T21:17:20.716Z,13.90
2018-04-30T21:19:48.241Z,13.80
2018-04-30T21:22:15.794Z,13.70
2018-04-30T21:24:44.095Z,13.60
2018-04-30T21:27:11.607Z,13.60
2018-04-30T21:29:43.448Z,13.50
2018-04-30T21:32:12.978Z,13.40
2018-04-30T21:34:41.375Z,13.40
2018-04-30T21:37:08.912Z,13.40
2018-04-30T21:39:37.778Z,13.30
2018-04-30T21:42:05.337Z,13.30
2018-04-30T21:44:33.167Z,13.50
2018-04-30T21:47:00.690Z,13.60
2018-04-30T21:49:28.239Z,13.60
2018-04-30T21:51:56.533Z,13.50
2018-04-30T21:54:24.089Z,13.40
2018-04-30T21:56:51.916Z,13.50
2018-04-30T21:59:19.450Z,13.40
2018-04-30T22:01:46.983Z,13.30
2018-04-30T22:04:15.473Z,13.40
2018-04-30T22:06:47.161Z,13.50
2018-04-30T22:09:14.687Z,13.50
2018-04-30T22:11:43.705Z,13.70
2018-04-30T22:14:15.609Z,13.70
2018-04-30T22:16:44.158Z,13.60
2018-04-30T22:19:11.702Z,13.60
2018-04-30T22:21:43.356Z,13.70
2018-04-30T22:24:11.360Z,13.70
2018-04-30T22:26:39.290Z,13.60
2018-04-30T22:29:06.793Z,13.60
2018-04-30T22:31:38.326Z,13.50
2018-04-30T22:34:06.305Z,13.40
2018-04-30T22:36:34.393Z,13.50
2018-04-30T22:39:02.195Z,13.50
2018-04-30T22:41:29.703Z,13.40
2018-04-30T22:43:57.902Z,13.30
2018-04-30T22:46:29.705Z,13.30
2018-04-30T22:48:57.244Z,13.20
2018-04-30T22:51:26.533Z,13.20
2018-04-30T22:53:54.234Z,13.30
2018-04-30T22:56:37.938Z,13.40
2018-04-30T23:12:05.509Z,13.40
2018-04-30T23:14:33.150Z,12.90
2018-04-30T23:17:04.936Z,13.20
2018-04-30T23:19:33.810Z,13.10
2018-04-30T23:35:04.988Z,13.30
2018-04-30T23:37:32.523Z,12.90
2018-04-30T23:40:01.328Z,12.90
2018-04-30T23:45:16.251Z,13.00
2018-04-30T23:47:45.048Z,13.10
2018-04-30T23:50:13.364Z,13.10
2018-04-30T23:52:43.017Z,13.10
2018-04-30T23:55:13.263Z,13.00
2018-04-30T23:57:41.550Z,12.80
